sensor_id;sensor_type;location;lat;lon;timestamp;P1;durP1;ratioP1;P2;durP2;ratioP2
40204;SDS011;26963;42.666;23.366;2023-10-13T00:00:33;15.07;;;9.18;;
40204;SDS011;26963;42.666;23.366;2023-10-13T00:03:02;14.75;;;7.80;;
40204;SDS011;26963;42.666;23.366;2023-10-13T00:05:29;15.93;;;8.43;;
40204;SDS011;26963;42.666;23.366;2023-10-13T00:07:58;13.95;;;8.05;;
40204;SDS011;26963;42.666;23.366;2023-10-13T00:10:28;13.20;;;6.88;;
40204;SDS011;26963;42.666;23.366;2023-10-13T00:12:54;9.98;;;6.60;;
40204;SDS011;26963;42.666;23.366;2023-10-13T00:15:30;12.65;;;6.53;;
40204;SDS011;26963;42.666;23.366;2023-10-13T00:18:04;11.13;;;6.63;;
40204;SDS011;26963;42.666;23.366;2023-10-13T00:20:43;11.75;;;7.20;;
40204;SDS011;26963;42.666;23.366;2023-10-13T00:23:15;12.48;;;7.32;;
40204;SDS011;26963;42.666;23.366;2023-10-13T00:25:48;11.00;;;6.63;;
40204;SDS011;26963;42.666;23.366;2023-10-13T00:28:25;11.40;;;6.57;;
40204;SDS011;26963;42.666;23.366;2023-10-13T00:31:01;13.63;;;7.28;;
40204;SDS011;26963;42.666;23.366;2023-10-13T00:33:38;12.80;;;7.45;;
40204;SDS011;26963;42.666;23.366;2023-10-13T00:36:06;9.85;;;7.03;;
40204;SDS011;26963;42.666;23.366;2023-10-13T00:38:33;12.27;;;6.25;;
40204;SDS011;26963;42.666;23.366;2023-10-13T00:41:00;14.32;;;7.78;;
40204;SDS011;26963;42.666;23.366;2023-10-13T00:43:46;14.27;;;7.38;;
40204;SDS011;26963;42.666;23.366;2023-10-13T00:46:31;12.60;;;7.75;;
40204;SDS011;26963;42.666;23.366;2023-10-13T00:48:59;10.60;;;7.55;;
40204;SDS011;26963;42.666;23.366;2023-10-13T00:51:25;12.68;;;7.90;;
40204;SDS011;26963;42.666;23.366;2023-10-13T00:54:22;9.65;;;6.53;;
40204;SDS011;26963;42.666;23.366;2023-10-13T00:56:52;11.45;;;7.28;;
40204;SDS011;26963;42.666;23.366;2023-10-13T00:59:39;12.65;;;7.45;;
40204;SDS011;26963;42.666;23.366;2023-10-13T01:02:07;9.45;;;7.35;;
40204;SDS011;26963;42.666;23.366;2023-10-13T01:04:52;12.85;;;7.30;;
40204;SDS011;26963;42.666;23.366;2023-10-13T01:07:19;8.88;;;6.88;;
40204;SDS011;26963;42.666;23.366;2023-10-13T01:09:47;10.50;;;6.50;;
40204;SDS011;26963;42.666;23.366;2023-10-13T01:12:13;11.45;;;6.75;;
40204;SDS011;26963;42.666;23.366;2023-10-13T01:14:41;9.52;;;6.40;;
40204;SDS011;26963;42.666;23.366;2023-10-13T01:17:07;11.35;;;6.63;;
40204;SDS011;26963;42.666;23.366;2023-10-13T01:19:36;9.65;;;6.38;;
40204;SDS011;26963;42.666;23.366;2023-10-13T01:22:08;9.30;;;6.80;;
40204;SDS011;26963;42.666;23.366;2023-10-13T01:24:34;10.20;;;7.20;;
40204;SDS011;26963;42.666;23.366;2023-10-13T01:27:00;8.93;;;6.80;;
40204;SDS011;26963;42.666;23.366;2023-10-13T01:29:42;13.07;;;7.75;;
40204;SDS011;26963;42.666;23.366;2023-10-13T01:32:17;11.23;;;6.95;;
40204;SDS011;26963;42.666;23.366;2023-10-13T01:34:44;11.13;;;6.35;;
40204;SDS011;26963;42.666;23.366;2023-10-13T01:37:14;8.88;;;6.70;;
40204;SDS011;26963;42.666;23.366;2023-10-13T01:39:41;15.02;;;7.22;;
40204;SDS011;26963;42.666;23.366;2023-10-13T01:42:06;9.88;;;6.53;;
40204;SDS011;26963;42.666;23.366;2023-10-13T01:44:32;9.70;;;6.82;;
40204;SDS011;26963;42.666;23.366;2023-10-13T01:46:58;11.18;;;7.28;;
40204;SDS011;26963;42.666;23.366;2023-10-13T01:49:24;9.27;;;6.25;;
40204;SDS011;26963;42.666;23.366;2023-10-13T01:51:50;11.45;;;6.85;;
40204;SDS011;26963;42.666;23.366;2023-10-13T01:54:16;14.43;;;6.57;;
40204;SDS011;26963;42.666;23.366;2023-10-13T01:56:42;13.07;;;6.53;;
40204;SDS011;26963;42.666;23.366;2023-10-13T01:59:12;8.98;;;6.20;;
40204;SDS011;26963;42.666;23.366;2023-10-13T02:01:38;10.82;;;6.50;;
40204;SDS011;26963;42.666;23.366;2023-10-13T02:04:08;10.02;;;5.75;;
40204;SDS011;26963;42.666;23.366;2023-10-13T02:06:36;11.32;;;6.60;;
40204;SDS011;26963;42.666;23.366;2023-10-13T02:09:05;10.00;;;6.53;;
40204;SDS011;26963;42.666;23.366;2023-10-13T02:11:39;11.57;;;6.68;;
40204;SDS011;26963;42.666;23.366;2023-10-13T02:14:05;13.50;;;7.28;;
40204;SDS011;26963;42.666;23.366;2023-10-13T02:16:31;15.07;;;7.05;;
40204;SDS011;26963;42.666;23.366;2023-10-13T02:18:58;9.98;;;6.07;;
40204;SDS011;26963;42.666;23.366;2023-10-13T02:21:29;8.35;;;6.43;;
40204;SDS011;26963;42.666;23.366;2023-10-13T02:23:57;13.10;;;6.65;;
40204;SDS011;26963;42.666;23.366;2023-10-13T02:26:29;12.00;;;6.72;;
40204;SDS011;26963;42.666;23.366;2023-10-13T02:29:04;11.35;;;6.90;;
40204;SDS011;26963;42.666;23.366;2023-10-13T02:31:36;10.32;;;6.75;;
40204;SDS011;26963;42.666;23.366;2023-10-13T02:34:03;11.77;;;6.68;;
40204;SDS011;26963;42.666;23.366;2023-10-13T02:36:37;10.60;;;7.13;;
40204;SDS011;26963;42.666;23.366;2023-10-13T02:39:21;8.50;;;6.75;;
40204;SDS011;26963;42.666;23.366;2023-10-13T02:41:51;13.35;;;6.93;;
40204;SDS011;26963;42.666;23.366;2023-10-13T02:44:20;8.85;;;6.55;;
40204;SDS011;26963;42.666;23.366;2023-10-13T02:46:56;10.85;;;7.00;;
40204;SDS011;26963;42.666;23.366;2023-10-13T02:49:22;13.07;;;6.68;;
40204;SDS011;26963;42.666;23.366;2023-10-13T02:51:54;10.30;;;7.07;;
40204;SDS011;26963;42.666;23.366;2023-10-13T02:54:27;9.60;;;6.82;;
40204;SDS011;26963;42.666;23.366;2023-10-13T02:56:56;11.65;;;6.78;;
40204;SDS011;26963;42.666;23.366;2023-10-13T02:59:30;13.93;;;8.50;;
40204;SDS011;26963;42.666;23.366;2023-10-13T03:02:08;14.68;;;7.97;;
40204;SDS011;26963;42.666;23.366;2023-10-13T03:05:16;12.43;;;8.52;;
40204;SDS011;26963;42.666;23.366;2023-10-13T03:07:35;12.70;;;7.47;;
40204;SDS011;26963;42.666;23.366;2023-10-13T03:10:02;11.20;;;8.38;;
40204;SDS011;26963;42.666;23.366;2023-10-13T03:12:38;14.60;;;10.18;;
40204;SDS011;26963;42.666;23.366;2023-10-13T03:15:05;15.07;;;11.65;;
40204;SDS011;26963;42.666;23.366;2023-10-13T03:17:46;11.88;;;7.68;;
40204;SDS011;26963;42.666;23.366;2023-10-13T03:20:12;11.65;;;7.90;;
40204;SDS011;26963;42.666;23.366;2023-10-13T03:22:41;15.82;;;9.40;;
40204;SDS011;26963;42.666;23.366;2023-10-13T03:25:14;11.75;;;9.10;;
40204;SDS011;26963;42.666;23.366;2023-10-13T03:27:49;12.38;;;8.30;;
40204;SDS011;26963;42.666;23.366;2023-10-13T03:30:21;14.30;;;9.77;;
40204;SDS011;26963;42.666;23.366;2023-10-13T03:32:48;16.40;;;10.52;;
40204;SDS011;26963;42.666;23.366;2023-10-13T03:35:19;13.88;;;9.63;;
40204;SDS011;26963;42.666;23.366;2023-10-13T03:38:03;11.77;;;6.95;;
40204;SDS011;26963;42.666;23.366;2023-10-13T03:40:29;17.73;;;11.02;;
40204;SDS011;26963;42.666;23.366;2023-10-13T03:42:55;14.18;;;10.18;;
40204;SDS011;26963;42.666;23.366;2023-10-13T03:45:42;15.93;;;9.23;;
40204;SDS011;26963;42.666;23.366;2023-10-13T03:48:13;16.45;;;10.43;;
40204;SDS011;26963;42.666;23.366;2023-10-13T03:50:55;16.48;;;11.38;;
40204;SDS011;26963;42.666;23.366;2023-10-13T03:53:29;19.98;;;12.57;;
40204;SDS011;26963;42.666;23.366;2023-10-13T03:56:02;18.20;;;11.57;;
40204;SDS011;26963;42.666;23.366;2023-10-13T03:58:38;17.58;;;10.82;;
40204;SDS011;26963;42.666;23.366;2023-10-13T04:01:07;14.68;;;7.80;;
40204;SDS011;26963;42.666;23.366;2023-10-13T04:03:35;16.88;;;10.55;;
40204;SDS011;26963;42.666;23.366;2023-10-13T04:06:04;18.77;;;10.25;;
40204;SDS011;26963;42.666;23.366;2023-10-13T04:08:33;19.13;;;11.05;;
40204;SDS011;26963;42.666;23.366;2023-10-13T04:11:08;44.38;;;21.42;;
40204;SDS011;26963;42.666;23.366;2023-10-13T04:13:52;29.30;;;16.25;;
40204;SDS011;26963;42.666;23.366;2023-10-13T04:16:36;14.27;;;9.57;;
40204;SDS011;26963;42.666;23.366;2023-10-13T04:19:13;16.55;;;9.85;;
40204;SDS011;26963;42.666;23.366;2023-10-13T04:21:47;14.10;;;9.05;;
40204;SDS011;26963;42.666;23.366;2023-10-13T04:24:23;19.00;;;13.38;;
40204;SDS011;26963;42.666;23.366;2023-10-13T04:26:51;21.42;;;15.95;;
40204;SDS011;26963;42.666;23.366;2023-10-13T04:29:36;18.13;;;11.13;;
40204;SDS011;26963;42.666;23.366;2023-10-13T04:32:34;16.50;;;11.80;;
40204;SDS011;26963;42.666;23.366;2023-10-13T04:35:11;16.55;;;10.00;;
40204;SDS011;26963;42.666;23.366;2023-10-13T04:37:37;21.52;;;11.73;;
40204;SDS011;26963;42.666;23.366;2023-10-13T04:40:22;16.55;;;10.60;;
40204;SDS011;26963;42.666;23.366;2023-10-13T04:42:50;20.10;;;12.68;;
40204;SDS011;26963;42.666;23.366;2023-10-13T04:45:22;22.08;;;11.88;;
40204;SDS011;26963;42.666;23.366;2023-10-13T04:48:00;16.52;;;9.00;;
40204;SDS011;26963;42.666;23.366;2023-10-13T04:51:00;18.77;;;11.40;;
40204;SDS011;26963;42.666;23.366;2023-10-13T04:54:04;25.60;;;15.45;;
40204;SDS011;26963;42.666;23.366;2023-10-13T04:56:37;28.33;;;15.23;;
40204;SDS011;26963;42.666;23.366;2023-10-13T04:59:05;26.23;;;10.80;;
40204;SDS011;26963;42.666;23.366;2023-10-13T05:01:43;24.98;;;11.27;;
40204;SDS011;26963;42.666;23.366;2023-10-13T05:04:27;27.48;;;10.40;;
40204;SDS011;26963;42.666;23.366;2023-10-13T05:07:04;24.58;;;11.93;;
40204;SDS011;26963;42.666;23.366;2023-10-13T05:09:48;22.48;;;10.77;;
40204;SDS011;26963;42.666;23.366;2023-10-13T05:12:33;22.95;;;10.77;;
40204;SDS011;26963;42.666;23.366;2023-10-13T05:15:20;23.23;;;12.15;;
40204;SDS011;26963;42.666;23.366;2023-10-13T05:18:05;24.48;;;12.43;;
40204;SDS011;26963;42.666;23.366;2023-10-13T05:20:55;20.90;;;11.45;;
40204;SDS011;26963;42.666;23.366;2023-10-13T05:23:39;18.77;;;10.45;;
40204;SDS011;26963;42.666;23.366;2023-10-13T05:26:23;29.38;;;12.23;;
40204;SDS011;26963;42.666;23.366;2023-10-13T05:29:07;23.77;;;12.15;;
40204;SDS011;26963;42.666;23.366;2023-10-13T05:31:54;26.63;;;12.38;;
40204;SDS011;26963;42.666;23.366;2023-10-13T05:34:38;28.85;;;11.60;;
40204;SDS011;26963;42.666;23.366;2023-10-13T05:37:22;20.92;;;11.45;;
40204;SDS011;26963;42.666;23.366;2023-10-13T05:40:06;22.42;;;11.07;;
40204;SDS011;26963;42.666;23.366;2023-10-13T05:42:51;18.55;;;11.00;;
40204;SDS011;26963;42.666;23.366;2023-10-13T05:45:37;21.90;;;11.38;;
40204;SDS011;26963;42.666;23.366;2023-10-13T05:48:26;20.27;;;11.07;;
40204;SDS011;26963;42.666;23.366;2023-10-13T05:51:18;36.53;;;23.77;;
40204;SDS011;26963;42.666;23.366;2023-10-13T05:54:19;28.27;;;14.30;;
40204;SDS011;26963;42.666;23.366;2023-10-13T05:56:50;28.13;;;11.82;;
40204;SDS011;26963;42.666;23.366;2023-10-13T05:59:35;23.65;;;11.43;;
40204;SDS011;26963;42.666;23.366;2023-10-13T06:02:21;20.17;;;11.45;;
40204;SDS011;26963;42.666;23.366;2023-10-13T06:05:07;27.77;;;11.38;;
40204;SDS011;26963;42.666;23.366;2023-10-13T06:07:53;20.75;;;11.40;;
40204;SDS011;26963;42.666;23.366;2023-10-13T06:10:38;23.20;;;11.65;;
40204;SDS011;26963;42.666;23.366;2023-10-13T06:13:23;26.13;;;11.65;;
40204;SDS011;26963;42.666;23.366;2023-10-13T06:16:07;19.83;;;11.75;;
40204;SDS011;26963;42.666;23.366;2023-10-13T06:18:53;21.52;;;11.55;;
40204;SDS011;26963;42.666;23.366;2023-10-13T06:21:37;16.10;;;11.20;;
40204;SDS011;26963;42.666;23.366;2023-10-13T06:24:21;19.77;;;11.52;;
40204;SDS011;26963;42.666;23.366;2023-10-13T06:27:06;17.55;;;11.45;;
40204;SDS011;26963;42.666;23.366;2023-10-13T06:29:50;18.48;;;11.77;;
40204;SDS011;26963;42.666;23.366;2023-10-13T06:32:19;20.48;;;12.18;;
40204;SDS011;26963;42.666;23.366;2023-10-13T06:34:45;22.38;;;13.48;;
40204;SDS011;26963;42.666;23.366;2023-10-13T06:37:11;47.92;;;33.00;;
40204;SDS011;26963;42.666;23.366;2023-10-13T06:39:57;24.15;;;18.08;;
40204;SDS011;26963;42.666;23.366;2023-10-13T06:42:39;20.35;;;13.00;;
40204;SDS011;26963;42.666;23.366;2023-10-13T06:45:08;18.90;;;13.13;;
40204;SDS011;26963;42.666;23.366;2023-10-13T06:47:35;20.50;;;12.88;;
40204;SDS011;26963;42.666;23.366;2023-10-13T06:50:06;19.25;;;13.75;;
40204;SDS011;26963;42.666;23.366;2023-10-13T06:52:43;20.52;;;13.55;;
40204;SDS011;26963;42.666;23.366;2023-10-13T06:55:09;25.17;;;14.35;;
40204;SDS011;26963;42.666;23.366;2023-10-13T06:57:43;19.85;;;14.32;;
40204;SDS011;26963;42.666;23.366;2023-10-13T07:00:10;30.08;;;14.68;;
40204;SDS011;26963;42.666;23.366;2023-10-13T07:02:45;25.80;;;17.17;;
40204;SDS011;26963;42.666;23.366;2023-10-13T07:05:12;31.15;;;20.65;;
40204;SDS011;26963;42.666;23.366;2023-10-13T07:07:39;24.08;;;15.77;;
40204;SDS011;26963;42.666;23.366;2023-10-13T07:10:11;22.55;;;15.15;;
40204;SDS011;26963;42.666;23.366;2023-10-13T07:12:38;22.00;;;14.45;;
40204;SDS011;26963;42.666;23.366;2023-10-13T07:15:08;25.25;;;15.57;;
40204;SDS011;26963;42.666;23.366;2023-10-13T07:17:47;23.23;;;15.55;;
40204;SDS011;26963;42.666;23.366;2023-10-13T07:20:20;25.08;;;13.88;;
40204;SDS011;26963;42.666;23.366;2023-10-13T07:22:54;21.98;;;14.25;;
40204;SDS011;26963;42.666;23.366;2023-10-13T07:25:23;26.42;;;14.45;;
40204;SDS011;26963;42.666;23.366;2023-10-13T07:27:51;32.58;;;16.00;;
40204;SDS011;26963;42.666;23.366;2023-10-13T07:30:17;21.80;;;15.27;;
40204;SDS011;26963;42.666;23.366;2023-10-13T07:32:45;24.52;;;14.25;;
40204;SDS011;26963;42.666;23.366;2023-10-13T07:35:14;24.00;;;15.27;;
40204;SDS011;26963;42.666;23.366;2023-10-13T07:37:43;25.75;;;15.23;;
40204;SDS011;26963;42.666;23.366;2023-10-13T07:40:10;27.80;;;15.70;;
40204;SDS011;26963;42.666;23.366;2023-10-13T07:42:54;27.10;;;14.77;;
40204;SDS011;26963;42.666;23.366;2023-10-13T07:45:28;22.15;;;14.20;;
40204;SDS011;26963;42.666;23.366;2023-10-13T07:48:03;24.38;;;13.93;;
40204;SDS011;26963;42.666;23.366;2023-10-13T07:50:40;23.50;;;14.23;;
40204;SDS011;26963;42.666;23.366;2023-10-13T07:53:06;22.35;;;14.00;;
40204;SDS011;26963;42.666;23.366;2023-10-13T07:55:47;25.40;;;14.90;;
40204;SDS011;26963;42.666;23.366;2023-10-13T07:58:12;30.60;;;14.85;;
40204;SDS011;26963;42.666;23.366;2023-10-13T08:00:41;22.17;;;15.27;;
40204;SDS011;26963;42.666;23.366;2023-10-13T08:03:07;24.52;;;14.48;;
40204;SDS011;26963;42.666;23.366;2023-10-13T08:05:42;27.23;;;15.30;;
40204;SDS011;26963;42.666;23.366;2023-10-13T08:08:23;24.75;;;15.30;;
40204;SDS011;26963;42.666;23.366;2023-10-13T08:10:56;26.48;;;14.75;;
40204;SDS011;26963;42.666;23.366;2023-10-13T08:13:28;20.10;;;13.10;;
40204;SDS011;26963;42.666;23.366;2023-10-13T08:15:53;22.98;;;13.23;;
40204;SDS011;26963;42.666;23.366;2023-10-13T08:18:19;21.95;;;13.73;;
40204;SDS011;26963;42.666;23.366;2023-10-13T08:21:00;27.02;;;12.80;;
40204;SDS011;26963;42.666;23.366;2023-10-13T08:23:31;21.27;;;12.50;;
40204;SDS011;26963;42.666;23.366;2023-10-13T08:26:20;21.05;;;13.88;;
40204;SDS011;26963;42.666;23.366;2023-10-13T08:28:59;22.17;;;14.02;;
40204;SDS011;26963;42.666;23.366;2023-10-13T08:31:45;22.60;;;14.38;;
40204;SDS011;26963;42.666;23.366;2023-10-13T08:34:30;23.23;;;14.52;;
40204;SDS011;26963;42.666;23.366;2023-10-13T08:37:16;21.55;;;14.48;;
40204;SDS011;26963;42.666;23.366;2023-10-13T08:39:58;25.20;;;15.20;;
40204;SDS011;26963;42.666;23.366;2023-10-13T08:47:32;26.15;;;15.38;;
40204;SDS011;26963;42.666;23.366;2023-10-13T08:50:01;24.83;;;15.05;;
40204;SDS011;26963;42.666;23.366;2023-10-13T08:52:48;23.35;;;14.65;;
40204;SDS011;26963;42.666;23.366;2023-10-13T08:55:14;25.20;;;17.27;;
40204;SDS011;26963;42.666;23.366;2023-10-13T08:57:59;22.65;;;15.52;;
40204;SDS011;26963;42.666;23.366;2023-10-13T09:00:39;25.77;;;15.20;;
40204;SDS011;26963;42.666;23.366;2023-10-13T09:03:38;23.98;;;15.85;;
40204;SDS011;26963;42.666;23.366;2023-10-13T09:06:07;26.25;;;15.68;;
40204;SDS011;26963;42.666;23.366;2023-10-13T09:08:39;27.83;;;15.05;;
40204;SDS011;26963;42.666;23.366;2023-10-13T09:11:24;28.98;;;15.75;;
40204;SDS011;26963;42.666;23.366;2023-10-13T09:13:51;30.75;;;17.00;;
40204;SDS011;26963;42.666;23.366;2023-10-13T09:16:17;20.35;;;14.88;;
40204;SDS011;26963;42.666;23.366;2023-10-13T09:19:07;23.02;;;15.10;;
40204;SDS011;26963;42.666;23.366;2023-10-13T09:21:40;23.02;;;14.43;;
40204;SDS011;26963;42.666;23.366;2023-10-13T09:24:08;25.63;;;13.88;;
40204;SDS011;26963;42.666;23.366;2023-10-13T09:26:53;23.55;;;14.25;;
40204;SDS011;26963;42.666;23.366;2023-10-13T09:29:21;24.95;;;13.77;;
40204;SDS011;26963;42.666;23.366;2023-10-13T09:31:59;22.13;;;15.15;;
40204;SDS011;26963;42.666;23.366;2023-10-13T09:34:27;27.88;;;13.80;;
40204;SDS011;26963;42.666;23.366;2023-10-13T09:36:58;25.58;;;13.50;;
40204;SDS011;26963;42.666;23.366;2023-10-13T09:39:28;27.85;;;13.38;;
40204;SDS011;26963;42.666;23.366;2023-10-13T09:42:06;26.00;;;12.25;;
40204;SDS011;26963;42.666;23.366;2023-10-13T09:44:35;17.50;;;11.95;;
40204;SDS011;26963;42.666;23.366;2023-10-13T09:47:02;23.20;;;13.15;;
40204;SDS011;26963;42.666;23.366;2023-10-13T09:52:22;23.15;;;12.20;;
40204;SDS011;26963;42.666;23.366;2023-10-13T09:57:31;21.58;;;13.27;;
40204;SDS011;26963;42.666;23.366;2023-10-13T10:00:09;17.48;;;10.77;;
40204;SDS011;26963;42.666;23.366;2023-10-13T10:02:55;18.77;;;11.05;;
40204;SDS011;26963;42.666;23.366;2023-10-13T10:05:29;18.27;;;9.95;;
40204;SDS011;26963;42.666;23.366;2023-10-13T10:07:59;16.15;;;10.57;;
40204;SDS011;26963;42.666;23.366;2023-10-13T10:10:37;17.55;;;9.60;;
40204;SDS011;26963;42.666;23.366;2023-10-13T10:16:29;15.98;;;9.18;;
40204;SDS011;26963;42.666;23.366;2023-10-13T10:19:07;15.02;;;9.52;;
40204;SDS011;26963;42.666;23.366;2023-10-13T10:21:35;18.38;;;9.02;;
40204;SDS011;26963;42.666;23.366;2023-10-13T10:24:02;13.38;;;8.88;;
40204;SDS011;26963;42.666;23.366;2023-10-13T10:26:38;20.35;;;9.00;;
40204;SDS011;26963;42.666;23.366;2023-10-13T10:29:17;14.10;;;9.10;;
40204;SDS011;26963;42.666;23.366;2023-10-13T10:31:42;16.50;;;8.60;;
40204;SDS011;26963;42.666;23.366;2023-10-13T10:34:14;13.40;;;7.50;;
40204;SDS011;26963;42.666;23.366;2023-10-13T10:36:46;11.25;;;5.75;;
40204;SDS011;26963;42.666;23.366;2023-10-13T10:39:20;12.48;;;7.03;;
40204;SDS011;26963;42.666;23.366;2023-10-13T10:41:46;12.30;;;7.32;;
40204;SDS011;26963;42.666;23.366;2023-10-13T10:44:18;16.02;;;6.90;;
40204;SDS011;26963;42.666;23.366;2023-10-13T10:46:51;17.55;;;8.73;;
40204;SDS011;26963;42.666;23.366;2023-10-13T10:49:18;12.88;;;6.47;;
40204;SDS011;26963;42.666;23.366;2023-10-13T10:51:53;13.73;;;6.25;;
40204;SDS011;26963;42.666;23.366;2023-10-13T10:54:29;16.95;;;6.32;;
40204;SDS011;26963;42.666;23.366;2023-10-13T10:56:57;11.98;;;5.78;;
40204;SDS011;26963;42.666;23.366;2023-10-13T10:59:36;14.35;;;5.75;;
40204;SDS011;26963;42.666;23.366;2023-10-13T11:02:02;11.70;;;5.38;;
40204;SDS011;26963;42.666;23.366;2023-10-13T11:04:28;11.57;;;5.32;;
40204;SDS011;26963;42.666;23.366;2023-10-13T11:06:59;10.20;;;5.90;;
40204;SDS011;26963;42.666;23.366;2023-10-13T11:09:25;10.30;;;4.38;;
40204;SDS011;26963;42.666;23.366;2023-10-13T11:11:51;13.80;;;4.57;;
40204;SDS011;26963;42.666;23.366;2023-10-13T11:14:25;8.27;;;4.70;;
40204;SDS011;26963;42.666;23.366;2023-10-13T11:16:53;12.20;;;4.88;;
40204;SDS011;26963;42.666;23.366;2023-10-13T11:19:20;10.32;;;4.40;;
40204;SDS011;26963;42.666;23.366;2023-10-13T11:22:09;7.63;;;5.00;;
40204;SDS011;26963;42.666;23.366;2023-10-13T11:25:03;10.52;;;4.13;;
40204;SDS011;26963;42.666;23.366;2023-10-13T11:27:34;8.57;;;4.35;;
40204;SDS011;26963;42.666;23.366;2023-10-13T11:30:17;9.98;;;4.25;;
40204;SDS011;26963;42.666;23.366;2023-10-13T11:33:03;7.40;;;3.53;;
40204;SDS011;26963;42.666;23.366;2023-10-13T11:35:33;7.28;;;3.40;;
40204;SDS011;26963;42.666;23.366;2023-10-13T11:38:28;9.20;;;3.45;;
40204;SDS011;26963;42.666;23.366;2023-10-13T11:41:08;6.10;;;3.10;;
40204;SDS011;26963;42.666;23.366;2023-10-13T11:43:44;7.03;;;3.03;;
40204;SDS011;26963;42.666;23.366;2023-10-13T11:46:16;8.10;;;3.00;;
40204;SDS011;26963;42.666;23.366;2023-10-13T11:48:57;6.78;;;3.25;;
40204;SDS011;26963;42.666;23.366;2023-10-13T11:51:30;5.32;;;3.10;;
40204;SDS011;26963;42.666;23.366;2023-10-13T11:53:57;4.72;;;2.47;;
40204;SDS011;26963;42.666;23.366;2023-10-13T11:56:23;6.68;;;2.65;;
40204;SDS011;26963;42.666;23.366;2023-10-13T11:58:50;6.25;;;2.72;;
40204;SDS011;26963;42.666;23.366;2023-10-13T12:01:16;6.40;;;3.30;;
40204;SDS011;26963;42.666;23.366;2023-10-13T12:03:45;7.75;;;3.28;;
40204;SDS011;26963;42.666;23.366;2023-10-13T12:06:31;8.15;;;3.72;;
40204;SDS011;26963;42.666;23.366;2023-10-13T12:09:08;10.57;;;4.13;;
40204;SDS011;26963;42.666;23.366;2023-10-13T12:11:41;8.98;;;3.35;;
40204;SDS011;26963;42.666;23.366;2023-10-13T12:14:11;8.30;;;3.53;;
40204;SDS011;26963;42.666;23.366;2023-10-13T12:16:47;8.38;;;3.72;;
40204;SDS011;26963;42.666;23.366;2023-10-13T12:19:17;9.93;;;3.72;;
40204;SDS011;26963;42.666;23.366;2023-10-13T12:21:48;10.35;;;3.85;;
40204;SDS011;26963;42.666;23.366;2023-10-13T12:24:24;11.48;;;4.50;;
40204;SDS011;26963;42.666;23.366;2023-10-13T12:27:03;7.47;;;5.03;;
40204;SDS011;26963;42.666;23.366;2023-10-13T12:29:48;13.55;;;7.30;;
40204;SDS011;26963;42.666;23.366;2023-10-13T12:32:17;11.38;;;4.00;;
40204;SDS011;26963;42.666;23.366;2023-10-13T12:34:51;9.18;;;4.05;;
40204;SDS011;26963;42.666;23.366;2023-10-13T12:37:30;7.60;;;3.03;;
40204;SDS011;26963;42.666;23.366;2023-10-13T12:42:54;9.73;;;3.97;;
40204;SDS011;26963;42.666;23.366;2023-10-13T12:45:38;6.22;;;3.25;;
40204;SDS011;26963;42.666;23.366;2023-10-13T12:48:23;6.80;;;3.50;;
40204;SDS011;26963;42.666;23.366;2023-10-13T12:51:07;10.48;;;3.60;;
40204;SDS011;26963;42.666;23.366;2023-10-13T12:53:45;11.80;;;4.65;;
40204;SDS011;26963;42.666;23.366;2023-10-13T12:56:14;7.00;;;3.78;;
40204;SDS011;26963;42.666;23.366;2023-10-13T12:58:41;7.88;;;4.00;;
40204;SDS011;26963;42.666;23.366;2023-10-13T13:01:07;9.15;;;3.55;;
40204;SDS011;26963;42.666;23.366;2023-10-13T13:03:33;7.03;;;3.33;;
40204;SDS011;26963;42.666;23.366;2023-10-13T13:05:59;7.95;;;4.05;;
40204;SDS011;26963;42.666;23.366;2023-10-13T13:08:33;9.85;;;3.85;;
40204;SDS011;26963;42.666;23.366;2023-10-13T13:11:09;6.55;;;3.22;;
40204;SDS011;26963;42.666;23.366;2023-10-13T13:13:36;9.50;;;3.40;;
40204;SDS011;26963;42.666;23.366;2023-10-13T13:16:02;6.80;;;3.28;;
40204;SDS011;26963;42.666;23.366;2023-10-13T13:18:29;6.88;;;3.40;;
40204;SDS011;26963;42.666;23.366;2023-10-13T13:20:54;7.25;;;3.70;;
40204;SDS011;26963;42.666;23.366;2023-10-13T13:23:21;7.57;;;3.55;;
40204;SDS011;26963;42.666;23.366;2023-10-13T13:25:51;11.25;;;3.72;;
40204;SDS011;26963;42.666;23.366;2023-10-13T13:28:17;7.55;;;3.30;;
40204;SDS011;26963;42.666;23.366;2023-10-13T13:30:43;7.43;;;3.83;;
40204;SDS011;26963;42.666;23.366;2023-10-13T13:33:11;12.48;;;8.00;;
40204;SDS011;26963;42.666;23.366;2023-10-13T13:35:37;9.52;;;5.25;;
40204;SDS011;26963;42.666;23.366;2023-10-13T13:38:04;11.88;;;3.95;;
40204;SDS011;26963;42.666;23.366;2023-10-13T13:40:41;7.85;;;3.47;;
40204;SDS011;26963;42.666;23.366;2023-10-13T13:43:13;8.93;;;3.92;;
40204;SDS011;26963;42.666;23.366;2023-10-13T13:45:57;9.45;;;3.70;;
40204;SDS011;26963;42.666;23.366;2023-10-13T13:48:26;11.70;;;3.90;;
40204;SDS011;26963;42.666;23.366;2023-10-13T13:50:53;8.32;;;3.63;;
40204;SDS011;26963;42.666;23.366;2023-10-13T13:53:28;9.80;;;3.30;;
40204;SDS011;26963;42.666;23.366;2023-10-13T13:56:05;9.50;;;3.60;;
40204;SDS011;26963;42.666;23.366;2023-10-13T13:58:31;7.85;;;3.65;;
40204;SDS011;26963;42.666;23.366;2023-10-13T14:01:00;9.32;;;4.68;;
40204;SDS011;26963;42.666;23.366;2023-10-13T14:03:37;10.45;;;4.60;;
40204;SDS011;26963;42.666;23.366;2023-10-13T14:06:10;7.75;;;4.18;;
40204;SDS011;26963;42.666;23.366;2023-10-13T14:08:43;7.88;;;4.25;;
40204;SDS011;26963;42.666;23.366;2023-10-13T14:11:10;9.95;;;4.47;;
40204;SDS011;26963;42.666;23.366;2023-10-13T14:13:39;6.32;;;3.85;;
40204;SDS011;26963;42.666;23.366;2023-10-13T14:16:15;8.45;;;3.90;;
40204;SDS011;26963;42.666;23.366;2023-10-13T14:18:45;10.55;;;3.58;;
40204;SDS011;26963;42.666;23.366;2023-10-13T14:21:15;9.27;;;4.18;;
40204;SDS011;26963;42.666;23.366;2023-10-13T14:23:49;11.18;;;4.03;;
40204;SDS011;26963;42.666;23.366;2023-10-13T14:26:19;8.80;;;4.00;;
40204;SDS011;26963;42.666;23.366;2023-10-13T14:28:49;7.60;;;3.65;;
40204;SDS011;26963;42.666;23.366;2023-10-13T14:31:26;7.50;;;3.92;;
40204;SDS011;26963;42.666;23.366;2023-10-13T14:33:52;10.30;;;3.95;;
40204;SDS011;26963;42.666;23.366;2023-10-13T14:36:18;9.43;;;5.65;;
40204;SDS011;26963;42.666;23.366;2023-10-13T14:38:48;12.15;;;7.20;;
40204;SDS011;26963;42.666;23.366;2023-10-13T14:41:16;11.07;;;3.90;;
40204;SDS011;26963;42.666;23.366;2023-10-13T14:43:43;9.77;;;4.28;;
40204;SDS011;26963;42.666;23.366;2023-10-13T14:46:15;8.45;;;3.72;;
40204;SDS011;26963;42.666;23.366;2023-10-13T14:48:45;10.20;;;3.75;;
40204;SDS011;26963;42.666;23.366;2023-10-13T14:51:14;9.70;;;3.92;;
40204;SDS011;26963;42.666;23.366;2023-10-13T14:53:42;8.00;;;4.00;;
40204;SDS011;26963;42.666;23.366;2023-10-13T14:56:11;9.27;;;4.22;;
40204;SDS011;26963;42.666;23.366;2023-10-13T14:58:38;10.05;;;3.88;;
40204;SDS011;26963;42.666;23.366;2023-10-13T15:01:13;9.90;;;4.07;;
40204;SDS011;26963;42.666;23.366;2023-10-13T15:03:47;8.55;;;3.60;;
40204;SDS011;26963;42.666;23.366;2023-10-13T15:06:18;9.55;;;3.78;;
40204;SDS011;26963;42.666;23.366;2023-10-13T15:08:55;9.90;;;3.80;;
40204;SDS011;26963;42.666;23.366;2023-10-13T15:11:22;14.32;;;4.70;;
40204;SDS011;26963;42.666;23.366;2023-10-13T15:16:31;9.77;;;3.50;;